createdAt,value
2023-04-11T00:01:49.881Z,1003.0
2023-04-11T00:12:38.984Z,1002.8
2023-04-11T00:17:45.499Z,1002.8
2023-04-11T00:23:15.835Z,1002.8
2023-04-11T00:27:48.152Z,1002.7
2023-04-11T00:33:48.798Z,1002.8
2023-04-11T00:38:31.109Z,1003.2
2023-04-11T00:43:07.645Z,1003.0
2023-04-11T00:48:24.064Z,1003.0
2023-04-11T00:53:30.484Z,1003.0
2023-04-11T00:58:36.834Z,1003.0
2023-04-11T01:04:03.433Z,1003.0
2023-04-11T01:08:49.706Z,1003.0
2023-04-11T01:14:20.107Z,1003.1
2023-04-11T01:19:02.451Z,1003.1
2023-04-11T01:24:08.884Z,1003.1
2023-04-11T01:29:15.206Z,1003.1
2023-04-11T01:34:35.617Z,1003.1
2023-04-11T01:39:19.055Z,1003.1
2023-04-11T01:44:59.472Z,1003.1
2023-04-11T01:49:41.796Z,1003.0
2023-04-11T01:54:48.204Z,1003.0
2023-04-11T02:00:18.633Z,1003.0
2023-04-11T02:05:00.956Z,1003.0
2023-04-11T02:10:07.924Z,1003.0
2023-04-11T02:16:06.458Z,1003.0
2023-04-11T02:21:16.773Z,1003.0
2023-04-11T02:25:51.126Z,1003.1
2023-04-11T02:30:33.428Z,1003.1
2023-04-11T02:35:53.882Z,1003.2
2023-04-11T02:40:36.209Z,1003.1
2023-04-11T02:45:59.091Z,1003.1
2023-04-11T02:50:59.168Z,1003.2
2023-04-11T02:56:05.554Z,1003.1
2023-04-11T03:01:36.067Z,1003.1
2023-04-11T03:06:18.399Z,1003.1
2023-04-11T03:11:48.820Z,1003.2
2023-04-11T03:17:05.220Z,1003.3
2023-04-11T03:21:51.544Z,1003.1
2023-04-11T03:26:43.888Z,1003.3
2023-04-11T03:31:50.368Z,1003.3
2023-04-11T03:37:40.819Z,1003.6
2023-04-11T03:42:03.187Z,1003.6
2023-04-11T03:47:13.161Z,1003.5
2023-04-11T03:52:19.534Z,1003.4
2023-04-11T03:57:49.998Z,1003.5
2023-04-11T04:02:32.500Z,1003.5
2023-04-11T04:07:38.685Z,1003.5
2023-04-11T04:12:35.049Z,1003.5
2023-04-11T04:23:02.592Z,1003.6
2023-04-11T04:28:08.939Z,1003.6
2023-04-11T04:33:35.364Z,1003.7
2023-04-11T04:39:00.816Z,1003.7
2023-04-11T04:43:27.086Z,1003.8
2023-04-11T04:48:34.588Z,1003.7
2023-04-11T04:54:05.226Z,1003.9
2023-04-11T04:58:47.491Z,1003.9
2023-04-11T05:03:54.258Z,1004.0
2023-04-11T05:09:44.338Z,1003.9
2023-04-11T05:14:26.632Z,1003.9
2023-04-11T05:19:37.033Z,1004.0
2023-04-11T05:24:39.393Z,1004.0
2023-04-11T05:29:25.749Z,1004.2
2023-04-11T05:34:32.108Z,1004.3
2023-04-11T05:39:38.486Z,1004.4
2023-04-11T05:44:44.896Z,1004.4
2023-04-11T05:49:51.237Z,1004.5
2023-04-11T05:54:57.630Z,1004.6
2023-04-11T06:00:04.052Z,1004.7
2023-04-11T06:05:01.657Z,1004.7
2023-04-11T06:10:42.146Z,1004.8
2023-04-11T06:15:14.578Z,1004.9
2023-04-11T06:20:30.960Z,1004.9
2023-04-11T06:25:37.348Z,1005.1
2023-04-11T06:30:33.733Z,1005.1
2023-04-11T06:35:50.120Z,1005.1
2023-04-11T06:40:56.536Z,1005.1
2023-04-11T06:46:06.616Z,1005.3
2023-04-11T06:51:36.991Z,1005.3
2023-04-11T06:56:19.355Z,1005.3
2023-04-11T07:01:25.815Z,1005.4
2023-04-11T07:06:22.097Z,1005.5
2023-04-11T07:11:38.584Z,1005.5
2023-04-11T07:17:05.046Z,1005.6
2023-04-11T07:21:52.493Z,1005.7
2023-04-11T07:27:00.035Z,1005.7
2023-04-11T07:32:06.428Z,1005.9
2023-04-11T07:37:12.837Z,1005.9
2023-04-11T07:42:19.226Z,1005.9
2023-04-11T07:47:49.683Z,1006.0
2023-04-11T07:52:53.886Z,1006.1
2023-04-11T07:57:38.994Z,1005.9
2023-04-11T08:02:46.499Z,1006.1
2023-04-11T08:07:52.948Z,1006.1
2023-04-11T08:12:49.562Z,1005.8
2023-04-11T08:18:05.976Z,1006.1
2023-04-11T08:23:12.308Z,1006.1
2023-04-11T08:28:18.714Z,1006.4
2023-04-11T08:33:25.076Z,1006.2
2023-04-11T08:38:31.447Z,1006.2
2023-04-11T08:44:02.234Z,1006.2
2023-04-11T08:49:04.793Z,1006.1
2023-04-11T08:53:51.133Z,1006.2
2023-04-11T08:58:57.566Z,1006.4
2023-04-11T09:04:03.918Z,1006.6
2023-04-11T09:09:33.871Z,1006.5
2023-04-11T09:14:20.249Z,1006.2
2023-04-11T09:19:26.755Z,1006.2
2023-04-11T09:24:35.388Z,1006.1
2023-04-11T09:29:39.730Z,1006.2
2023-04-11T09:34:46.109Z,1006.4
2023-04-11T09:39:52.447Z,1006.3
2023-04-11T09:44:58.825Z,1006.3
2023-04-11T09:50:05.270Z,1006.1
2023-04-11T09:55:11.612Z,1006.2
2023-04-11T10:00:18.118Z,1006.2
2023-04-11T10:05:24.529Z,1006.3
2023-04-11T10:10:50.942Z,1006.2
2023-04-11T10:15:37.276Z,1006.1
2023-04-11T10:20:43.755Z,1005.9
2023-04-11T10:26:27.137Z,1005.9
2023-04-11T10:30:55.413Z,1005.9
2023-04-11T10:36:26.997Z,1006.0
2023-04-11T10:41:09.319Z,1005.9
2023-04-11T10:46:15.703Z,1006.0
2023-04-11T10:51:22.184Z,1005.8
2023-04-11T10:56:28.590Z,1005.9
2023-04-11T11:01:42.788Z,1005.9
2023-04-11T11:06:47.382Z,1006.1
2023-04-11T11:12:07.817Z,1006.0
2023-04-11T11:16:54.171Z,1005.9
2023-04-11T11:22:20.516Z,1005.8
2023-04-11T11:27:06.865Z,1006.2
2023-04-11T11:32:57.462Z,1006.1
2023-04-11T11:37:43.717Z,1006.1
2023-04-11T11:43:11.245Z,1006.1
2023-04-11T11:47:33.558Z,1006.5
2023-04-11T11:52:40.070Z,1006.6
2023-04-11T11:57:46.342Z,1006.5
2023-04-11T12:02:52.913Z,1006.5
2023-04-11T12:07:59.129Z,1006.8
2023-04-11T12:12:55.649Z,1006.7
2023-04-11T12:18:16.137Z,1006.8
2023-04-11T12:23:18.494Z,1007.0
2023-04-11T12:29:38.964Z,1006.3
2023-04-11T12:33:51.241Z,1006.7
2023-04-11T12:38:57.889Z,1006.9
2023-04-11T12:44:04.128Z,1006.6
2023-04-11T12:48:50.571Z,1006.6
2023-04-11T12:53:56.948Z,1007.6
2023-04-11T12:59:03.423Z,1006.5
2023-04-11T13:04:09.938Z,1007.3
2023-04-11T13:09:16.087Z,1007.4
2023-04-11T13:14:12.467Z,1007.6
2023-04-11T13:19:28.885Z,1007.5
2023-04-11T13:24:35.260Z,1007.7
2023-04-11T13:29:41.666Z,1006.5
2023-04-11T13:34:48.026Z,1006.7
2023-04-11T13:40:14.432Z,1006.8
2023-04-11T13:45:24.880Z,1007.7
2023-04-11T13:50:27.192Z,1006.7
2023-04-11T13:55:13.685Z,1007.7
2023-04-11T14:00:40.239Z,1006.8
2023-04-11T14:05:26.549Z,1007.6
2023-04-11T14:10:32.949Z,1007.5
2023-04-11T14:15:39.429Z,1007.6
2023-04-11T14:21:05.881Z,1007.5
2023-04-11T14:25:52.179Z,1007.3
2023-04-11T14:31:36.845Z,1007.2
2023-04-11T14:36:50.274Z,1007.4
2023-04-11T14:41:12.486Z,1007.1
2023-04-11T14:46:18.895Z,1007.1
2023-04-11T14:51:45.266Z,1006.9
2023-04-11T14:56:51.698Z,1006.9
2023-04-11T15:02:02.348Z,1007.2
2023-04-11T15:06:44.498Z,1006.8
2023-04-11T15:11:50.871Z,1007.3
2023-04-11T15:16:57.274Z,1006.9
2023-04-11T15:22:59.747Z,1006.9
2023-04-11T15:27:14.035Z,1007.1
2023-04-11T15:32:06.391Z,1007.2
2023-04-11T15:37:22.826Z,1007.4
2023-04-11T15:42:29.230Z,1007.4
2023-04-11T15:47:35.656Z,1007.3
2023-04-11T15:53:36.088Z,1007.2
2023-04-11T15:57:48.362Z,1007.2
2023-04-11T16:02:55.233Z,1007.1
2023-04-11T16:08:55.440Z,1007.1
2023-04-11T16:13:07.828Z,1007.0
2023-04-11T16:18:14.238Z,1006.9
2023-04-11T16:23:20.585Z,1006.9
2023-04-11T16:28:26.961Z,1006.9
2023-04-11T16:33:33.388Z,1006.9
2023-04-11T16:38:39.850Z,1006.8
2023-04-11T16:43:46.346Z,1006.9
2023-04-11T16:48:52.789Z,1006.8
2023-04-11T16:53:59.248Z,1006.9
2023-04-11T16:59:05.497Z,1006.8
2023-04-11T17:04:02.275Z,1006.9
2023-04-11T17:09:18.319Z,1007.0
2023-04-11T17:14:25.898Z,1007.0
2023-04-11T17:19:32.312Z,1007.0
2023-04-11T17:24:38.655Z,1006.8
2023-04-11T17:29:45.089Z,1006.9
2023-04-11T17:35:35.556Z,1006.9
2023-04-11T17:39:57.828Z,1006.9
2023-04-11T17:45:16.227Z,1006.9
2023-04-11T17:50:11.085Z,1006.7
2023-04-11T17:56:20.619Z,1006.8
2023-04-11T18:00:26.466Z,1006.8
2023-04-11T18:05:33.816Z,1006.8
2023-04-11T18:10:43.784Z,1006.7
2023-04-11T18:15:50.244Z,1006.7
2023-04-11T18:20:56.801Z,1006.8
2023-04-11T18:26:23.230Z,1006.8
2023-04-11T18:31:09.641Z,1006.8
2023-04-11T18:36:36.017Z,1006.7
2023-04-11T18:41:22.397Z,1006.8
2023-04-11T18:46:55.733Z,1006.8
2023-04-11T18:51:56.782Z,1006.8
2023-04-11T18:57:07.993Z,1006.8
2023-04-11T19:02:30.334Z,1006.8
2023-04-11T19:07:41.709Z,1006.8
2023-04-11T19:12:05.029Z,1006.8
2023-04-11T19:17:11.407Z,1006.6
2023-04-11T19:22:21.402Z,1006.6
2023-04-11T19:27:27.912Z,1006.7
2023-04-11T19:32:24.560Z,1006.6
2023-04-11T19:37:40.905Z,1006.5
2023-04-11T19:42:47.279Z,1006.5
2023-04-11T19:47:53.746Z,1006.4
2023-04-11T19:53:01.411Z,1006.3
2023-04-11T19:58:07.729Z,1006.2
2023-04-11T20:03:14.265Z,1006.3
2023-04-11T20:08:20.517Z,1006.2
2023-04-11T20:13:26.917Z,1006.1
2023-04-11T20:19:08.378Z,1006.1
2023-04-11T20:24:15.916Z,1006.1
2023-04-11T20:29:22.413Z,1006.0
2023-04-11T20:34:28.769Z,1005.9
2023-04-11T20:39:35.196Z,1005.8
2023-04-11T20:44:41.591Z,1005.7
2023-04-11T20:50:08.008Z,1005.7
2023-04-11T20:54:54.507Z,1005.6
2023-04-11T21:00:00.865Z,1005.6
2023-04-11T21:05:07.234Z,1005.5
2023-04-11T21:10:03.647Z,1005.4
2023-04-11T21:15:19.995Z,1005.3
2023-04-11T21:20:46.563Z,1005.2
2023-04-11T21:25:32.997Z,1005.2
2023-04-11T21:30:39.308Z,1005.0
2023-04-11T21:36:09.838Z,1005.0
2023-04-11T21:41:12.165Z,1005.0
2023-04-11T21:45:58.473Z,1004.9
2023-04-11T21:51:24.887Z,1004.8
2023-04-11T21:56:35.312Z,1004.9
2023-04-11T22:01:17.933Z,1004.7
2023-04-11T22:06:24.289Z,1004.8
2023-04-11T22:11:30.723Z,1004.7
2023-04-11T22:16:37.219Z,1004.7
2023-04-11T22:21:43.479Z,1004.5
2023-04-11T22:26:49.934Z,1004.4
2023-04-11T22:31:56.487Z,1004.4
2023-04-11T22:36:52.774Z,1004.3
2023-04-11T22:42:36.780Z,1004.2
2023-04-11T22:47:39.301Z,1004.1
2023-04-11T22:52:25.627Z,1004.0
2023-04-11T22:58:06.128Z,1003.9
2023-04-11T23:03:13.734Z,1003.8
2023-04-11T23:08:20.004Z,1003.6
2023-04-11T23:13:26.369Z,1003.3
2023-04-11T23:18:32.771Z,1003.2
2023-04-11T23:23:39.116Z,1003.1
2023-04-11T23:28:45.502Z,1003.1
2023-04-11T23:33:52.048Z,1002.9
2023-04-11T23:39:02.300Z,1002.9
2023-04-11T23:44:08.498Z,1002.8
2023-04-11T23:49:14.888Z,1002.6
2023-04-11T23:54:21.272Z,1002.7
2023-04-11T23:59:27.615Z,1002.5
